sensor_id;sensor_type;location;lat;lon;timestamp;temperature;humidity
7194;DHT22;3638;48.820;9.244;2023-05-31T00:02:14;15.80;76.50
7194;DHT22;3638;48.820;9.244;2023-05-31T00:04:41;15.80;76.40
7194;DHT22;3638;48.820;9.244;2023-05-31T00:07:08;15.80;76.40
7194;DHT22;3638;48.820;9.244;2023-05-31T00:09:35;15.80;76.70
7194;DHT22;3638;48.820;9.244;2023-05-31T00:12:03;15.80;76.40
7194;DHT22;3638;48.820;9.244;2023-05-31T00:14:31;15.90;76.80
7194;DHT22;3638;48.820;9.244;2023-05-31T00:16:58;15.80;76.80
7194;DHT22;3638;48.820;9.244;2023-05-31T00:21:54;15.70;76.90
7194;DHT22;3638;48.820;9.244;2023-05-31T00:24:21;15.70;76.80
7194;DHT22;3638;48.820;9.244;2023-05-31T00:29:16;15.60;77.00
7194;DHT22;3638;48.820;9.244;2023-05-31T00:31:43;15.70;76.80
7194;DHT22;3638;48.820;9.244;2023-05-31T00:34:10;15.60;78.40
7194;DHT22;3638;48.820;9.244;2023-05-31T00:36:39;15.50;77.80
7194;DHT22;3638;48.820;9.244;2023-05-31T00:41:33;15.50;78.30
7194;DHT22;3638;48.820;9.244;2023-05-31T00:44:00;15.40;78.50
7194;DHT22;3638;48.820;9.244;2023-05-31T00:46:31;15.40;78.60
7194;DHT22;3638;48.820;9.244;2023-05-31T00:51:30;15.50;77.80
7194;DHT22;3638;48.820;9.244;2023-05-31T00:54:00;15.40;78.40
7194;DHT22;3638;48.820;9.244;2023-05-31T00:56:28;15.40;77.80
7194;DHT22;3638;48.820;9.244;2023-05-31T00:58:57;15.40;76.90
7194;DHT22;3638;48.820;9.244;2023-05-31T01:01:26;15.40;77.00
7194;DHT22;3638;48.820;9.244;2023-05-31T01:03:58;15.50;77.00
7194;DHT22;3638;48.820;9.244;2023-05-31T01:09:00;15.40;76.30
7194;DHT22;3638;48.820;9.244;2023-05-31T01:11:37;15.50;75.70
7194;DHT22;3638;48.820;9.244;2023-05-31T01:14:19;15.50;75.70
7194;DHT22;3638;48.820;9.244;2023-05-31T01:16:53;15.60;75.10
7194;DHT22;3638;48.820;9.244;2023-05-31T01:19:33;15.60;74.80
7194;DHT22;3638;48.820;9.244;2023-05-31T01:22:13;15.70;74.60
7194;DHT22;3638;48.820;9.244;2023-05-31T01:25:11;15.70;74.60
7194;DHT22;3638;48.820;9.244;2023-05-31T01:27:46;15.70;74.80
7194;DHT22;3638;48.820;9.244;2023-05-31T01:30:14;15.70;74.80
7194;DHT22;3638;48.820;9.244;2023-05-31T01:32:44;15.60;75.10
7194;DHT22;3638;48.820;9.244;2023-05-31T01:37:40;15.60;75.40
7194;DHT22;3638;48.820;9.244;2023-05-31T01:40:08;15.60;75.20
7194;DHT22;3638;48.820;9.244;2023-05-31T01:42:35;15.50;75.60
7194;DHT22;3638;48.820;9.244;2023-05-31T01:45:05;15.40;75.90
7194;DHT22;3638;48.820;9.244;2023-05-31T01:47:34;15.40;76.60
7194;DHT22;3638;48.820;9.244;2023-05-31T01:50:02;15.40;76.80
7194;DHT22;3638;48.820;9.244;2023-05-31T01:52:30;15.30;76.80
7194;DHT22;3638;48.820;9.244;2023-05-31T01:54:57;15.30;77.20
7194;DHT22;3638;48.820;9.244;2023-05-31T01:57:25;15.10;77.20
7194;DHT22;3638;48.820;9.244;2023-05-31T01:59:54;15.00;78.40
7194;DHT22;3638;48.820;9.244;2023-05-31T02:02:23;14.90;79.00
7194;DHT22;3638;48.820;9.244;2023-05-31T02:04:50;14.80;79.50
7194;DHT22;3638;48.820;9.244;2023-05-31T02:07:17;14.80;80.30
7194;DHT22;3638;48.820;9.244;2023-05-31T02:09:46;14.80;79.80
7194;DHT22;3638;48.820;9.244;2023-05-31T02:12:13;14.70;80.20
7194;DHT22;3638;48.820;9.244;2023-05-31T02:14:40;14.70;80.00
7194;DHT22;3638;48.820;9.244;2023-05-31T02:17:08;14.60;80.40
7194;DHT22;3638;48.820;9.244;2023-05-31T02:19:36;14.60;80.60
7194;DHT22;3638;48.820;9.244;2023-05-31T02:22:03;14.50;80.70
7194;DHT22;3638;48.820;9.244;2023-05-31T02:24:30;14.40;80.90
7194;DHT22;3638;48.820;9.244;2023-05-31T02:26:57;14.40;81.10
7194;DHT22;3638;48.820;9.244;2023-05-31T02:31:52;14.40;80.70
7194;DHT22;3638;48.820;9.244;2023-05-31T02:36:49;14.40;80.80
7194;DHT22;3638;48.820;9.244;2023-05-31T02:41:44;14.40;80.80
7194;DHT22;3638;48.820;9.244;2023-05-31T02:44:11;14.30;81.60
7194;DHT22;3638;48.820;9.244;2023-05-31T02:46:39;14.20;82.00
7194;DHT22;3638;48.820;9.244;2023-05-31T02:49:06;14.20;83.00
7194;DHT22;3638;48.820;9.244;2023-05-31T02:51:33;14.20;82.80
7194;DHT22;3638;48.820;9.244;2023-05-31T02:56:29;13.80;84.30
7194;DHT22;3638;48.820;9.244;2023-05-31T02:58:57;13.70;85.50
7194;DHT22;3638;48.820;9.244;2023-05-31T03:01:24;16.40;88.30
7194;DHT22;3638;48.820;9.244;2023-05-31T03:03:51;13.50;87.20
7194;DHT22;3638;48.820;9.244;2023-05-31T03:06:18;13.40;87.50
7194;DHT22;3638;48.820;9.244;2023-05-31T03:08:45;13.30;88.00
7194;DHT22;3638;48.820;9.244;2023-05-31T03:13:42;13.20;89.00
7194;DHT22;3638;48.820;9.244;2023-05-31T03:16:09;13.10;89.50
7194;DHT22;3638;48.820;9.244;2023-05-31T03:18:36;13.10;90.00
7194;DHT22;3638;48.820;9.244;2023-05-31T03:21:04;13.00;90.00
7194;DHT22;3638;48.820;9.244;2023-05-31T03:23:31;12.90;90.30
7194;DHT22;3638;48.820;9.244;2023-05-31T03:25:58;12.90;90.20
7194;DHT22;3638;48.820;9.244;2023-05-31T03:28:26;12.90;90.40
7194;DHT22;3638;48.820;9.244;2023-05-31T03:33:20;12.80;90.60
7194;DHT22;3638;48.820;9.244;2023-05-31T03:35:48;12.70;90.90
7194;DHT22;3638;48.820;9.244;2023-05-31T03:40:42;12.70;90.90
7194;DHT22;3638;48.820;9.244;2023-05-31T03:45:38;12.70;91.00
7194;DHT22;3638;48.820;9.244;2023-05-31T03:48:05;12.70;91.00
7194;DHT22;3638;48.820;9.244;2023-05-31T03:50:33;12.60;91.40
7194;DHT22;3638;48.820;9.244;2023-05-31T03:53:00;12.60;91.40
7194;DHT22;3638;48.820;9.244;2023-05-31T03:55:27;12.60;91.60
7194;DHT22;3638;48.820;9.244;2023-05-31T03:57:54;12.60;91.40
7194;DHT22;3638;48.820;9.244;2023-05-31T04:02:50;12.70;91.60
7194;DHT22;3638;48.820;9.244;2023-05-31T04:05:18;12.70;91.70
7194;DHT22;3638;48.820;9.244;2023-05-31T04:07:45;12.70;91.90
7194;DHT22;3638;48.820;9.244;2023-05-31T04:12:39;12.70;92.20
7194;DHT22;3638;48.820;9.244;2023-05-31T04:15:07;12.70;92.30
7194;DHT22;3638;48.820;9.244;2023-05-31T04:25:01;13.00;92.40
7194;DHT22;3638;48.820;9.244;2023-05-31T04:32:30;13.70;91.90
7194;DHT22;3638;48.820;9.244;2023-05-31T04:34:59;14.00;91.60
7194;DHT22;3638;48.820;9.244;2023-05-31T04:37:30;14.20;91.20
7194;DHT22;3638;48.820;9.244;2023-05-31T04:39:58;14.40;90.80
7194;DHT22;3638;48.820;9.244;2023-05-31T04:42:26;14.60;90.60
7194;DHT22;3638;48.820;9.244;2023-05-31T04:44:54;14.70;90.10
7194;DHT22;3638;48.820;9.244;2023-05-31T04:47:23;15.00;89.70
7194;DHT22;3638;48.820;9.244;2023-05-31T04:49:53;15.10;88.30
7194;DHT22;3638;48.820;9.244;2023-05-31T04:54:53;15.60;85.20
7194;DHT22;3638;48.820;9.244;2023-05-31T04:57:20;15.80;84.30
7194;DHT22;3638;48.820;9.244;2023-05-31T04:59:48;16.00;83.70
7194;DHT22;3638;48.820;9.244;2023-05-31T05:02:17;16.30;81.50
7194;DHT22;3638;48.820;9.244;2023-05-31T05:04:45;16.70;82.00
7194;DHT22;3638;48.820;9.244;2023-05-31T05:09:41;17.20;81.50
7194;DHT22;3638;48.820;9.244;2023-05-31T05:14:38;17.50;80.20
7194;DHT22;3638;48.820;9.244;2023-05-31T05:17:05;17.70;80.00
7194;DHT22;3638;48.820;9.244;2023-05-31T05:19:35;17.80;80.50
7194;DHT22;3638;48.820;9.244;2023-05-31T05:22:02;17.90;79.80
7194;DHT22;3638;48.820;9.244;2023-05-31T05:24:30;17.80;79.20
7194;DHT22;3638;48.820;9.244;2023-05-31T05:26:57;18.10;78.30
7194;DHT22;3638;48.820;9.244;2023-05-31T05:29:25;18.60;77.00
7194;DHT22;3638;48.820;9.244;2023-05-31T05:31:52;18.50;76.70
7194;DHT22;3638;48.820;9.244;2023-05-31T05:34:20;18.20;77.80
7194;DHT22;3638;48.820;9.244;2023-05-31T05:36:47;18.30;76.90
7194;DHT22;3638;48.820;9.244;2023-05-31T05:39:14;18.80;77.80
7194;DHT22;3638;48.820;9.244;2023-05-31T05:41:41;18.50;76.30
7194;DHT22;3638;48.820;9.244;2023-05-31T05:44:08;18.30;77.30
7194;DHT22;3638;48.820;9.244;2023-05-31T05:46:37;18.50;77.60
7194;DHT22;3638;48.820;9.244;2023-05-31T05:49:04;18.70;77.90
7194;DHT22;3638;48.820;9.244;2023-05-31T05:51:31;18.90;76.60
7194;DHT22;3638;48.820;9.244;2023-05-31T05:56:26;18.80;76.40
7194;DHT22;3638;48.820;9.244;2023-05-31T05:58:53;19.30;74.40
7194;DHT22;3638;48.820;9.244;2023-05-31T06:01:21;19.50;73.50
7194;DHT22;3638;48.820;9.244;2023-05-31T06:03:51;19.40;72.00
7194;DHT22;3638;48.820;9.244;2023-05-31T06:06:18;19.10;71.50
7194;DHT22;3638;48.820;9.244;2023-05-31T06:08:46;18.90;73.60
7194;DHT22;3638;48.820;9.244;2023-05-31T06:11:13;19.10;73.80
7194;DHT22;3638;48.820;9.244;2023-05-31T06:13:44;19.30;73.00
7194;DHT22;3638;48.820;9.244;2023-05-31T06:16:12;19.30;72.90
7194;DHT22;3638;48.820;9.244;2023-05-31T06:21:09;19.10;71.80
7194;DHT22;3638;48.820;9.244;2023-05-31T06:23:36;19.60;71.90
7194;DHT22;3638;48.820;9.244;2023-05-31T06:26:03;19.70;72.30
7194;DHT22;3638;48.820;9.244;2023-05-31T06:28:30;20.20;70.30
7194;DHT22;3638;48.820;9.244;2023-05-31T06:30:58;20.30;69.40
7194;DHT22;3638;48.820;9.244;2023-05-31T06:33:26;20.10;69.00
7194;DHT22;3638;48.820;9.244;2023-05-31T06:38:22;20.30;69.90
7194;DHT22;3638;48.820;9.244;2023-05-31T06:40:49;20.40;68.50
7194;DHT22;3638;48.820;9.244;2023-05-31T06:43:16;20.40;69.20
7194;DHT22;3638;48.820;9.244;2023-05-31T06:45:43;20.40;69.50
7194;DHT22;3638;48.820;9.244;2023-05-31T06:50:37;20.50;69.20
7194;DHT22;3638;48.820;9.244;2023-05-31T06:55:36;20.60;68.30
7194;DHT22;3638;48.820;9.244;2023-05-31T06:58:03;20.80;69.60
7194;DHT22;3638;48.820;9.244;2023-05-31T07:00:30;20.70;68.00
7194;DHT22;3638;48.820;9.244;2023-05-31T07:02:57;20.80;69.00
7194;DHT22;3638;48.820;9.244;2023-05-31T07:10:19;21.90;65.30
7194;DHT22;3638;48.820;9.244;2023-05-31T07:12:47;21.60;66.10
7194;DHT22;3638;48.820;9.244;2023-05-31T07:15:16;21.80;67.90
7194;DHT22;3638;48.820;9.244;2023-05-31T07:17:43;22.10;64.60
7194;DHT22;3638;48.820;9.244;2023-05-31T07:20:11;22.30;65.40
7194;DHT22;3638;48.820;9.244;2023-05-31T07:22:38;22.70;65.60
7194;DHT22;3638;48.820;9.244;2023-05-31T07:25:06;23.20;64.40
7194;DHT22;3638;48.820;9.244;2023-05-31T07:27:34;23.20;62.70
7194;DHT22;3638;48.820;9.244;2023-05-31T07:30:02;23.60;61.90
7194;DHT22;3638;48.820;9.244;2023-05-31T07:32:30;23.60;60.80
7194;DHT22;3638;48.820;9.244;2023-05-31T07:34:57;23.40;61.80
7194;DHT22;3638;48.820;9.244;2023-05-31T07:37:24;23.20;61.70
7194;DHT22;3638;48.820;9.244;2023-05-31T07:39:52;23.40;62.50
7194;DHT22;3638;48.820;9.244;2023-05-31T07:44:46;23.70;61.20
7194;DHT22;3638;48.820;9.244;2023-05-31T07:47:15;23.80;60.30
7194;DHT22;3638;48.820;9.244;2023-05-31T07:49:42;23.50;61.10
7194;DHT22;3638;48.820;9.244;2023-05-31T07:52:10;23.20;61.60
7194;DHT22;3638;48.820;9.244;2023-05-31T07:54:37;22.90;62.60
7194;DHT22;3638;48.820;9.244;2023-05-31T07:57:05;22.90;62.90
7194;DHT22;3638;48.820;9.244;2023-05-31T07:59:32;23.30;62.20
7194;DHT22;3638;48.820;9.244;2023-05-31T08:01:59;23.40;61.90
7194;DHT22;3638;48.820;9.244;2023-05-31T08:04:27;23.50;60.90
7194;DHT22;3638;48.820;9.244;2023-05-31T08:06:55;23.40;61.10
7194;DHT22;3638;48.820;9.244;2023-05-31T08:09:22;23.30;60.70
7194;DHT22;3638;48.820;9.244;2023-05-31T08:11:49;23.20;61.10
7194;DHT22;3638;48.820;9.244;2023-05-31T08:14:16;23.10;61.40
7194;DHT22;3638;48.820;9.244;2023-05-31T08:16:43;23.00;61.60
7194;DHT22;3638;48.820;9.244;2023-05-31T08:19:10;23.20;61.00
7194;DHT22;3638;48.820;9.244;2023-05-31T08:21:39;23.40;62.50
7194;DHT22;3638;48.820;9.244;2023-05-31T08:24:06;23.20;62.90
7194;DHT22;3638;48.820;9.244;2023-05-31T08:26:33;23.40;61.70
7194;DHT22;3638;48.820;9.244;2023-05-31T08:29:01;23.30;62.00
7194;DHT22;3638;48.820;9.244;2023-05-31T08:31:28;23.50;61.80
7194;DHT22;3638;48.820;9.244;2023-05-31T08:33:56;23.60;61.60
7194;DHT22;3638;48.820;9.244;2023-05-31T08:36:24;23.40;62.90
7194;DHT22;3638;48.820;9.244;2023-05-31T08:38:53;23.30;61.50
7194;DHT22;3638;48.820;9.244;2023-05-31T08:41:22;23.00;63.10
7194;DHT22;3638;48.820;9.244;2023-05-31T08:43:52;22.70;64.40
7194;DHT22;3638;48.820;9.244;2023-05-31T08:46:34;23.20;62.40
7194;DHT22;3638;48.820;9.244;2023-05-31T08:49:05;23.20;62.40
7194;DHT22;3638;48.820;9.244;2023-05-31T08:51:36;23.30;62.70
7194;DHT22;3638;48.820;9.244;2023-05-31T08:54:06;23.30;62.90
7194;DHT22;3638;48.820;9.244;2023-05-31T08:56:34;23.50;63.50
7194;DHT22;3638;48.820;9.244;2023-05-31T08:59:02;23.40;63.20
7194;DHT22;3638;48.820;9.244;2023-05-31T09:01:30;23.50;62.90
7194;DHT22;3638;48.820;9.244;2023-05-31T09:03:59;23.70;62.60
7194;DHT22;3638;48.820;9.244;2023-05-31T09:06:26;23.30;64.30
7194;DHT22;3638;48.820;9.244;2023-05-31T09:11:24;23.90;62.20
7194;DHT22;3638;48.820;9.244;2023-05-31T09:13:51;23.80;61.30
7194;DHT22;3638;48.820;9.244;2023-05-31T09:16:19;24.10;60.40
7194;DHT22;3638;48.820;9.244;2023-05-31T09:18:46;24.00;60.10
7194;DHT22;3638;48.820;9.244;2023-05-31T09:21:14;24.00;60.80
7194;DHT22;3638;48.820;9.244;2023-05-31T09:23:51;24.00;60.80
7194;DHT22;3638;48.820;9.244;2023-05-31T09:26:19;23.70;60.70
7194;DHT22;3638;48.820;9.244;2023-05-31T09:28:50;23.70;60.30
7194;DHT22;3638;48.820;9.244;2023-05-31T09:31:18;23.70;61.60
7194;DHT22;3638;48.820;9.244;2023-05-31T09:33:46;23.70;59.70
7194;DHT22;3638;48.820;9.244;2023-05-31T09:36:23;23.30;60.10
7194;DHT22;3638;48.820;9.244;2023-05-31T09:38:58;23.40;61.00
7194;DHT22;3638;48.820;9.244;2023-05-31T09:41:28;23.80;59.60
7194;DHT22;3638;48.820;9.244;2023-05-31T09:43:57;24.10;59.40
7194;DHT22;3638;48.820;9.244;2023-05-31T09:46:25;24.20;58.80
7194;DHT22;3638;48.820;9.244;2023-05-31T09:48:59;24.30;59.40
7194;DHT22;3638;48.820;9.244;2023-05-31T09:51:27;24.40;58.90
7194;DHT22;3638;48.820;9.244;2023-05-31T09:53:56;24.60;59.40
7194;DHT22;3638;48.820;9.244;2023-05-31T09:56:24;24.10;58.30
7194;DHT22;3638;48.820;9.244;2023-05-31T09:58:57;24.10;60.40
7194;DHT22;3638;48.820;9.244;2023-05-31T10:01:25;24.40;59.30
7194;DHT22;3638;48.820;9.244;2023-05-31T10:03:52;24.30;57.90
7194;DHT22;3638;48.820;9.244;2023-05-31T10:06:20;23.80;57.80
7194;DHT22;3638;48.820;9.244;2023-05-31T10:08:47;23.50;57.80
7194;DHT22;3638;48.820;9.244;2023-05-31T10:11:16;23.20;59.00
7194;DHT22;3638;48.820;9.244;2023-05-31T10:13:48;23.50;59.50
7194;DHT22;3638;48.820;9.244;2023-05-31T10:16:19;23.40;57.10
7194;DHT22;3638;48.820;9.244;2023-05-31T10:18:50;23.50;59.70
7194;DHT22;3638;48.820;9.244;2023-05-31T10:21:22;23.50;60.10
7194;DHT22;3638;48.820;9.244;2023-05-31T10:23:56;23.80;58.30
7194;DHT22;3638;48.820;9.244;2023-05-31T10:26:31;23.70;57.70
7194;DHT22;3638;48.820;9.244;2023-05-31T10:29:05;23.90;57.00
7194;DHT22;3638;48.820;9.244;2023-05-31T10:31:43;23.90;56.70
7194;DHT22;3638;48.820;9.244;2023-05-31T10:34:18;23.90;57.50
7194;DHT22;3638;48.820;9.244;2023-05-31T10:36:46;24.00;55.70
7194;DHT22;3638;48.820;9.244;2023-05-31T10:39:19;24.00;57.50
7194;DHT22;3638;48.820;9.244;2023-05-31T10:42:09;23.90;56.90
7194;DHT22;3638;48.820;9.244;2023-05-31T10:44:50;24.00;58.30
7194;DHT22;3638;48.820;9.244;2023-05-31T10:47:32;24.00;58.70
7194;DHT22;3638;48.820;9.244;2023-05-31T10:50:02;24.30;54.30
7194;DHT22;3638;48.820;9.244;2023-05-31T10:52:30;24.50;54.70
7194;DHT22;3638;48.820;9.244;2023-05-31T10:55:15;24.40;55.50
7194;DHT22;3638;48.820;9.244;2023-05-31T10:57:43;24.20;55.80
7194;DHT22;3638;48.820;9.244;2023-05-31T11:00:11;24.30;55.40
7194;DHT22;3638;48.820;9.244;2023-05-31T11:02:47;24.10;56.90
7194;DHT22;3638;48.820;9.244;2023-05-31T11:05:19;23.90;55.70
7194;DHT22;3638;48.820;9.244;2023-05-31T11:07:49;23.70;57.00
7194;DHT22;3638;48.820;9.244;2023-05-31T11:10:24;23.60;56.60
7194;DHT22;3638;48.820;9.244;2023-05-31T11:12:55;23.80;56.10
7194;DHT22;3638;48.820;9.244;2023-05-31T11:15:38;24.00;55.70
7194;DHT22;3638;48.820;9.244;2023-05-31T11:20:36;24.10;55.50
7194;DHT22;3638;48.820;9.244;2023-05-31T11:23:23;24.10;56.40
7194;DHT22;3638;48.820;9.244;2023-05-31T11:26:09;23.80;55.50
7194;DHT22;3638;48.820;9.244;2023-05-31T11:29:04;23.70;55.60
7194;DHT22;3638;48.820;9.244;2023-05-31T11:31:56;24.00;54.90
7194;DHT22;3638;48.820;9.244;2023-05-31T11:34:27;24.10;54.60
7194;DHT22;3638;48.820;9.244;2023-05-31T11:37:01;24.10;54.00
7194;DHT22;3638;48.820;9.244;2023-05-31T11:39:29;24.00;56.00
7194;DHT22;3638;48.820;9.244;2023-05-31T11:41:57;24.10;57.10
7194;DHT22;3638;48.820;9.244;2023-05-31T11:44:29;24.10;56.00
7194;DHT22;3638;48.820;9.244;2023-05-31T11:47:03;23.80;56.40
7194;DHT22;3638;48.820;9.244;2023-05-31T11:49:32;24.00;55.50
7194;DHT22;3638;48.820;9.244;2023-05-31T11:52:00;24.00;54.70
7194;DHT22;3638;48.820;9.244;2023-05-31T11:54:30;24.30;55.10
7194;DHT22;3638;48.820;9.244;2023-05-31T11:57:03;24.40;54.40
7194;DHT22;3638;48.820;9.244;2023-05-31T11:59:32;24.40;52.50
7194;DHT22;3638;48.820;9.244;2023-05-31T12:02:00;24.40;53.90
7194;DHT22;3638;48.820;9.244;2023-05-31T12:04:34;24.40;54.60
7194;DHT22;3638;48.820;9.244;2023-05-31T12:07:03;24.30;54.60
7194;DHT22;3638;48.820;9.244;2023-05-31T12:09:31;24.30;53.50
7194;DHT22;3638;48.820;9.244;2023-05-31T12:11:59;24.30;54.10
7194;DHT22;3638;48.820;9.244;2023-05-31T12:14:29;24.20;53.50
7194;DHT22;3638;48.820;9.244;2023-05-31T12:17:00;24.10;53.80
7194;DHT22;3638;48.820;9.244;2023-05-31T12:19:29;24.10;54.40
7194;DHT22;3638;48.820;9.244;2023-05-31T12:21:57;24.30;54.60
7194;DHT22;3638;48.820;9.244;2023-05-31T12:24:25;24.10;53.50
7194;DHT22;3638;48.820;9.244;2023-05-31T12:26:54;24.20;53.60
7194;DHT22;3638;48.820;9.244;2023-05-31T12:29:25;24.30;52.80
7194;DHT22;3638;48.820;9.244;2023-05-31T12:32:00;24.20;52.90
7194;DHT22;3638;48.820;9.244;2023-05-31T12:34:28;24.20;53.50
7194;DHT22;3638;48.820;9.244;2023-05-31T12:36:57;24.30;50.90
7194;DHT22;3638;48.820;9.244;2023-05-31T12:39:25;24.40;50.30
7194;DHT22;3638;48.820;9.244;2023-05-31T12:41:52;24.30;50.30
7194;DHT22;3638;48.820;9.244;2023-05-31T12:44:20;24.40;49.20
7194;DHT22;3638;48.820;9.244;2023-05-31T12:46:49;24.60;49.20
7194;DHT22;3638;48.820;9.244;2023-05-31T12:49:20;24.70;49.50
7194;DHT22;3638;48.820;9.244;2023-05-31T12:51:48;24.80;48.70
7194;DHT22;3638;48.820;9.244;2023-05-31T12:54:20;24.80;48.20
7194;DHT22;3638;48.820;9.244;2023-05-31T12:56:47;24.80;48.20
7194;DHT22;3638;48.820;9.244;2023-05-31T12:59:14;24.70;48.50
7194;DHT22;3638;48.820;9.244;2023-05-31T13:01:41;24.60;49.00
7194;DHT22;3638;48.820;9.244;2023-05-31T13:04:10;24.30;48.40
7194;DHT22;3638;48.820;9.244;2023-05-31T13:06:38;24.20;50.00
7194;DHT22;3638;48.820;9.244;2023-05-31T13:09:05;24.40;49.70
7194;DHT22;3638;48.820;9.244;2023-05-31T13:11:35;24.60;49.70
7194;DHT22;3638;48.820;9.244;2023-05-31T13:14:04;24.80;49.90
7194;DHT22;3638;48.820;9.244;2023-05-31T13:16:34;24.70;48.00
7194;DHT22;3638;48.820;9.244;2023-05-31T13:19:04;24.60;50.40
7194;DHT22;3638;48.820;9.244;2023-05-31T13:21:33;24.80;49.60
7194;DHT22;3638;48.820;9.244;2023-05-31T13:24:01;24.70;49.50
7194;DHT22;3638;48.820;9.244;2023-05-31T13:26:30;24.40;48.60
7194;DHT22;3638;48.820;9.244;2023-05-31T13:28:59;24.40;48.90
7194;DHT22;3638;48.820;9.244;2023-05-31T13:31:28;24.60;49.40
7194;DHT22;3638;48.820;9.244;2023-05-31T13:33:56;24.80;49.20
7194;DHT22;3638;48.820;9.244;2023-05-31T13:36:23;24.80;48.50
7194;DHT22;3638;48.820;9.244;2023-05-31T13:41:19;24.70;47.50
7194;DHT22;3638;48.820;9.244;2023-05-31T13:43:48;24.80;47.30
7194;DHT22;3638;48.820;9.244;2023-05-31T13:46:16;24.80;48.40
7194;DHT22;3638;48.820;9.244;2023-05-31T13:48:44;24.70;47.40
7194;DHT22;3638;48.820;9.244;2023-05-31T13:51:11;24.70;48.20
7194;DHT22;3638;48.820;9.244;2023-05-31T13:53:38;24.90;48.90
7194;DHT22;3638;48.820;9.244;2023-05-31T13:56:10;25.00;47.60
7194;DHT22;3638;48.820;9.244;2023-05-31T13:58:38;25.10;46.20
7194;DHT22;3638;48.820;9.244;2023-05-31T14:01:06;25.00;46.80
7194;DHT22;3638;48.820;9.244;2023-05-31T14:03:35;24.80;48.50
7194;DHT22;3638;48.820;9.244;2023-05-31T14:06:03;24.80;48.30
7194;DHT22;3638;48.820;9.244;2023-05-31T14:10:59;24.80;47.00
7194;DHT22;3638;48.820;9.244;2023-05-31T14:13:26;24.80;47.80
7194;DHT22;3638;48.820;9.244;2023-05-31T14:15:54;24.90;48.60
7194;DHT22;3638;48.820;9.244;2023-05-31T14:18:22;25.00;48.20
7194;DHT22;3638;48.820;9.244;2023-05-31T14:20:51;25.10;47.40
7194;DHT22;3638;48.820;9.244;2023-05-31T14:23:18;25.20;48.70
7194;DHT22;3638;48.820;9.244;2023-05-31T14:25:45;25.00;47.70
7194;DHT22;3638;48.820;9.244;2023-05-31T14:28:12;25.00;48.20
7194;DHT22;3638;48.820;9.244;2023-05-31T14:30:39;24.90;48.70
7194;DHT22;3638;48.820;9.244;2023-05-31T14:33:07;23.70;48.40
7194;DHT22;3638;48.820;9.244;2023-05-31T14:35:34;25.00;47.30
7194;DHT22;3638;48.820;9.244;2023-05-31T14:38:02;25.10;46.50
7194;DHT22;3638;48.820;9.244;2023-05-31T14:40:32;25.20;46.30
7194;DHT22;3638;48.820;9.244;2023-05-31T14:42:59;25.30;46.10
7194;DHT22;3638;48.820;9.244;2023-05-31T14:45:26;25.40;46.30
7194;DHT22;3638;48.820;9.244;2023-05-31T14:47:54;25.40;47.70
7194;DHT22;3638;48.820;9.244;2023-05-31T14:50:22;25.40;46.60
7194;DHT22;3638;48.820;9.244;2023-05-31T14:52:49;25.30;47.00
7194;DHT22;3638;48.820;9.244;2023-05-31T14:55:17;25.10;47.50
7194;DHT22;3638;48.820;9.244;2023-05-31T14:57:45;25.10;47.10
7194;DHT22;3638;48.820;9.244;2023-05-31T15:00:12;25.00;48.10
7194;DHT22;3638;48.820;9.244;2023-05-31T15:02:40;25.20;47.70
7194;DHT22;3638;48.820;9.244;2023-05-31T15:05:08;25.20;48.20
7194;DHT22;3638;48.820;9.244;2023-05-31T15:07:36;25.30;46.50
7194;DHT22;3638;48.820;9.244;2023-05-31T15:10:04;25.20;46.50
7194;DHT22;3638;48.820;9.244;2023-05-31T15:15:00;25.10;47.90
7194;DHT22;3638;48.820;9.244;2023-05-31T15:17:27;25.20;48.20
7194;DHT22;3638;48.820;9.244;2023-05-31T15:19:54;25.30;48.10
7194;DHT22;3638;48.820;9.244;2023-05-31T15:22:22;25.20;46.80
7194;DHT22;3638;48.820;9.244;2023-05-31T15:24:49;25.20;47.50
7194;DHT22;3638;48.820;9.244;2023-05-31T15:27:16;25.10;47.80
7194;DHT22;3638;48.820;9.244;2023-05-31T15:29:44;25.10;47.00
7194;DHT22;3638;48.820;9.244;2023-05-31T15:34:39;25.20;47.30
7194;DHT22;3638;48.820;9.244;2023-05-31T15:37:07;25.20;46.40
7194;DHT22;3638;48.820;9.244;2023-05-31T15:39:34;25.10;46.50
7194;DHT22;3638;48.820;9.244;2023-05-31T15:42:01;24.80;46.40
7194;DHT22;3638;48.820;9.244;2023-05-31T15:46:59;25.00;48.30
7194;DHT22;3638;48.820;9.244;2023-05-31T15:49:26;25.10;47.40
7194;DHT22;3638;48.820;9.244;2023-05-31T15:51:53;25.10;47.40
7194;DHT22;3638;48.820;9.244;2023-05-31T16:01:42;25.00;47.70
7194;DHT22;3638;48.820;9.244;2023-05-31T16:04:11;25.00;47.40
7194;DHT22;3638;48.820;9.244;2023-05-31T16:06:38;25.00;46.50
7194;DHT22;3638;48.820;9.244;2023-05-31T16:09:05;25.00;46.90
7194;DHT22;3638;48.820;9.244;2023-05-31T16:11:32;24.90;46.60
7194;DHT22;3638;48.820;9.244;2023-05-31T16:13:59;24.70;47.50
7194;DHT22;3638;48.820;9.244;2023-05-31T16:16:26;24.80;47.90
7194;DHT22;3638;48.820;9.244;2023-05-31T16:18:55;25.00;47.80
7194;DHT22;3638;48.820;9.244;2023-05-31T16:21:24;25.10;48.00
7194;DHT22;3638;48.820;9.244;2023-05-31T16:26:19;25.00;47.40
7194;DHT22;3638;48.820;9.244;2023-05-31T16:28:46;25.00;47.00
7194;DHT22;3638;48.820;9.244;2023-05-31T16:31:13;24.80;47.10
7194;DHT22;3638;48.820;9.244;2023-05-31T16:36:08;24.80;48.20
7194;DHT22;3638;48.820;9.244;2023-05-31T16:38:37;24.90;47.30
7194;DHT22;3638;48.820;9.244;2023-05-31T16:41:04;24.80;46.50
7194;DHT22;3638;48.820;9.244;2023-05-31T16:43:31;24.90;47.30
7194;DHT22;3638;48.820;9.244;2023-05-31T16:45:58;24.90;46.80
7194;DHT22;3638;48.820;9.244;2023-05-31T16:48:26;25.00;46.60
7194;DHT22;3638;48.820;9.244;2023-05-31T16:53:21;24.90;47.00
7194;DHT22;3638;48.820;9.244;2023-05-31T16:55:50;24.90;47.30
7194;DHT22;3638;48.820;9.244;2023-05-31T16:58:17;24.90;47.50
7194;DHT22;3638;48.820;9.244;2023-05-31T17:00:44;24.80;47.60
7194;DHT22;3638;48.820;9.244;2023-05-31T17:03:11;24.70;48.80
7194;DHT22;3638;48.820;9.244;2023-05-31T17:05:40;24.70;48.70
7194;DHT22;3638;48.820;9.244;2023-05-31T17:08:07;24.70;48.70
7194;DHT22;3638;48.820;9.244;2023-05-31T17:10:35;24.70;48.00
7194;DHT22;3638;48.820;9.244;2023-05-31T17:13:04;24.70;48.10
7194;DHT22;3638;48.820;9.244;2023-05-31T17:15:32;24.70;48.90
7194;DHT22;3638;48.820;9.244;2023-05-31T17:17:59;24.70;48.50
7194;DHT22;3638;48.820;9.244;2023-05-31T17:22:54;24.70;48.90
7194;DHT22;3638;48.820;9.244;2023-05-31T17:25:22;24.60;48.70
7194;DHT22;3638;48.820;9.244;2023-05-31T17:27:49;24.60;48.60
7194;DHT22;3638;48.820;9.244;2023-05-31T17:30:18;24.60;49.20
7194;DHT22;3638;48.820;9.244;2023-05-31T17:32:51;24.60;49.80
7194;DHT22;3638;48.820;9.244;2023-05-31T17:35:19;24.60;50.40
7194;DHT22;3638;48.820;9.244;2023-05-31T17:37:46;24.50;50.50
7194;DHT22;3638;48.820;9.244;2023-05-31T17:40:13;24.60;50.30
7194;DHT22;3638;48.820;9.244;2023-05-31T17:42:41;24.60;50.00
7194;DHT22;3638;48.820;9.244;2023-05-31T17:45:10;24.50;50.60
7194;DHT22;3638;48.820;9.244;2023-05-31T17:47:39;24.40;50.50
7194;DHT22;3638;48.820;9.244;2023-05-31T17:50:07;24.30;50.50
7194;DHT22;3638;48.820;9.244;2023-05-31T17:52:36;24.30;50.20
7194;DHT22;3638;48.820;9.244;2023-05-31T17:55:03;24.30;50.30
7194;DHT22;3638;48.820;9.244;2023-05-31T17:57:31;24.30;50.10
7194;DHT22;3638;48.820;9.244;2023-05-31T17:59:58;24.20;50.40
7194;DHT22;3638;48.820;9.244;2023-05-31T18:02:25;24.20;50.70
7194;DHT22;3638;48.820;9.244;2023-05-31T18:04:54;25.20;51.90
7194;DHT22;3638;48.820;9.244;2023-05-31T18:07:21;24.00;51.60